Latest Coastal Weather Observations for Albion Park

IDN60701

Issued at 1:55 am EST Saturday 30 August 2014 (issued every 10 minutes, with the page automatically refreshed every 10 minutes)

About coastal observations | Map of coastal stations | Coastal observations for NSW | Marine services | Other Formats
Station Details ID: 068241 Name: WOLLONGONG AIRPORT Lat: -34.56 Lon: 150.79 Height: 8.0 m
Data from the previous 72 hours. | See also: Recent months at Albion Park
Date/Time
EST
Temp

°C
Wind Pressure Rain
since 9am
mm
Weather Cloud Vis
km
Sea
Height
m
Swell
Dir
 
Speed
knots
Gust
knots
hPa Trend Height
m
Period
s
Dir
30/01:30am 13.9 SSW 15 25 1024.2 - 2.0 - Cloudy 10 - - - -
30/01:14am 14.0 SSW 15 26 1024.3 - 2.0 - Partly cloudy 10 - - - -
30/01:00am 13.7 SSW 14 25 1024.4 - 2.0 - Partly cloudy 10 - - - -
30/12:30am 13.8 SSW 16 25 1024.6 - 2.0 - Partly cloudy 10 - - - -
30/12:17am 13.8 SSW 19 29 1024.6 - 2.0 - Partly cloudy 10 - - - -
30/12:00am 13.7 SSW 16 23 1024.6 - 2.0 - Mostly clear 10 - - - -
 
Date/Time
EST
Temp

°C
Wind Pressure Rain
since 9am
mm
Weather Cloud Vis
km
Sea
Height
m
Swell
Dir
 
Speed
knots
Gust
knots
hPa Trend Height
m
Period
s
Dir
29/11:38pm 13.6 SSW 17 30 1024.9 - 2.0 - Partly cloudy 10 - - - -
29/11:30pm 13.5 SSW 14 24 1024.8 - 2.0 - Partly cloudy 10 - - - -
29/11:00pm 13.4 SSW 14 23 1025.1 - 2.0 - Partly cloudy 10 - - - -
29/10:30pm 13.2 SSW 13 21 1025.3 - 2.0 - - 10 - - - -
29/10:15pm 13.5 SSW 15 29 1025.4 - 2.0 - - 10 - - - -
29/10:00pm 13.2 SSW 13 18 1025.3 - 2.0 - - 10 - - - -
29/09:30pm 13.7 SSW 15 28 1025.5 - 2.0 - - 10 - - - -
29/09:20pm 13.7 SSW 15 28 1025.3 - 2.0 - - 10 - - - -
29/09:00pm 13.5 S 15 22 1025.5 - 2.0 - - 10 - - - -
29/08:30pm 13.7 S 13 19 1025.5 - 2.0 - Partly cloudy 10 - - - -
29/08:00pm 13.5 S 10 16 1025.8 - 2.0 - Partly cloudy 10 - - - -
29/07:30pm 13.8 S 11 15 1025.8 - 2.0 - Partly cloudy 10 - - - -
29/07:00pm 13.9 S 9 15 1025.8 - 2.0 - - 10 - - - -
29/06:30pm 13.9 S 12 17 1025.6 - 2.0 - Partly cloudy 10 - - - -
29/06:00pm 13.9 S 12 17 1025.4 - 2.0 - Cloudy 10 - - - -
29/05:30pm 14.3 S 12 19 1025.2 - 2.0 - Partly cloudy 10 - - - -
29/05:00pm 14.7 SSW 10 15 1024.9 - 2.0 - Partly cloudy 10 - - - -
29/04:30pm 14.4 S 13 20 1024.8 - 2.0 - Partly cloudy 10 - - - -
29/04:00pm 14.1 S 11 17 1024.7 - 2.0 - Partly cloudy 10 - - - -
29/03:30pm 14.9 S 15 21 1024.5 - 1.8 - Partly cloudy 10 - - - -
29/03:00pm 16.1 S 10 15 1024.6 - 1.8 - Mostly clear 10 - - - -
29/02:30pm 15.2 SSW 12 21 1024.8 - 1.8 - Partly cloudy 10 - - - -
29/02:00pm 14.7 S 13 21 1025.2 - 1.8 - Partly cloudy 10 - - - -
29/01:45pm 13.6 SSW 14 18 1025.3 - 1.8 - Partly cloudy 10 - - - -
29/01:34pm 13.4 S 15 24 1025.4 - 1.8 - Partly cloudy 5 - - - -
29/01:30pm 13.8 S 14 24 1025.4 - 1.8 - Partly cloudy 9 - - - -
29/01:00pm 15.6 S 9 13 1025.5 - 1.4 - Partly cloudy 10 - - - -
29/12:30pm 15.2 SSW 11 15 1025.9 - 1.4 - Partly cloudy 10 - - - -
29/12:00pm 13.9 SSW 5 16 1026.4 - 1.4 Rain Cloudy 10 - - - -
29/11:58am 14.3 SSW 3 10 1026.4 - 1.2 - Partly cloudy 10 - - - -
29/11:37am 13.8 SSE 9 13 1026.7 - 0.4 - Partly cloudy 5 - - - -
29/11:30am 15.4 S 11 15 1026.5 - 0.2 - Partly cloudy 10 - - - -
29/11:00am 15.4 S 12 20 1026.6 - 0.2 - Partly cloudy 10 - - - -
29/10:30am 15.3 S 13 20 1027.0 - 0.0 - Partly cloudy 10 - - - -
29/10:00am 15.5 W 11 12 1026.8 - 0.0 - Partly cloudy 10 - - - -
29/09:30am 15.0 SSW 9 15 1027.2 - 0.0 - Partly cloudy 10 - - - -
29/09:00am 15.1 SW 9 15 1027.3 - 0.0 - Cloudy 10 - - - -
29/08:30am 14.0 S 7 9 1027.5 - 0.0 - Partly cloudy 10 - - - -
29/08:00am 13.7 SSW 9 13 1027.3 - 0.0 - Partly cloudy 10 - - - -
29/07:30am 11.8 WSW 8 12 1027.0 - 0.0 - Partly cloudy 10 - - - -
29/07:00am 11.3 WSW 8 10 1026.9 - 0.0 - - 10 - - - -
29/06:30am 11.5 SW 7 10 1026.8 - 0.0 - Partly cloudy 10 - - - -
29/06:00am 11.2 WSW 6 12 1026.6 - 0.0 - Partly cloudy 10 - - - -
29/05:30am 11.1 WSW 6 8 1026.3 - 0.0 - Partly cloudy 10 - - - -
29/05:00am 11.5 WSW 7 10 1026.2 - 0.0 - Partly cloudy 10 - - - -
29/04:30am 11.1 WSW 7 10 1026.3 - 0.0 - Partly cloudy 10 - - - -
29/04:00am 11.7 SW 7 9 1026.3 - 0.0 - Partly cloudy 10 - - - -
29/03:30am 11.5 SW 6 8 1026.3 - 0.0 - Partly cloudy 10 - - - -
29/03:00am 10.7 SW 5 7 1026.6 - 0.0 - Partly cloudy 10 - - - -
29/02:30am 11.6 SSW 7 9 1026.7 - 0.0 - - 10 - - - -
29/02:00am 11.6 WSW 6 10 1026.9 - 0.0 - Partly cloudy 10 - - - -
29/01:30am 9.7 W 5 7 1027.2 - 0.0 - Partly cloudy 10 - - - -
29/01:00am 9.0 W 4 6 1027.5 - 0.0 - - 10 - - - -
29/12:30am 9.7 W 4 6 1027.8 - 0.0 - - 10 - - - -
29/12:00am 9.7 W 6 7 1028.0 - 0.0 - - 10 - - - -
 
Date/Time
EST
Temp

°C
Wind Pressure Rain
since 9am
mm
Weather Cloud Vis
km
Sea
Height
m
Swell
Dir
 
Speed
knots
Gust
knots
hPa Trend Height
m
Period
s
Dir
28/11:30pm 9.5 W 5 7 1028.2 - 0.0 - - 10 - - - -
28/11:00pm 10.0 W 4 5 1028.1 - 0.0 - - 10 - - - -
28/10:30pm 10.2 W 5 6 1028.2 - 0.0 - Partly cloudy 10 - - - -
28/10:00pm 10.4 W 5 6 1028.4 - 0.0 - Partly cloudy 10 - - - -
28/09:30pm 10.5 W 5 6 1028.5 - 0.0 - Partly cloudy 10 - - - -
28/09:00pm 10.7 W 2 4 1028.7 - 0.0 - Mostly cloudy 10 - - - -
28/08:30pm 10.7 WSW 6 7 1028.4 - 0.0 - Partly cloudy 10 - - - -
28/08:00pm 11.0 WSW 7 8 1028.3 - 0.0 - Partly cloudy 10 - - - -
28/07:30pm 12.1 SW 6 7 1028.3 - 0.0 - Partly cloudy 10 - - - -
28/07:00pm 12.3 S 5 6 1028.1 - 0.0 - Partly cloudy 10 - - - -
28/06:30pm 11.5 SW 5 6 1028.0 - 0.0 - Partly cloudy 10 - - - -
28/06:00pm 12.3 S 4 5 1027.9 - 0.0 - - 10 - - - -
28/05:30pm 13.9 S 5 6 1027.8 - 0.0 - - 10 - - - -
28/05:00pm 15.4 SSE 9 11 1027.5 - 0.0 - - 10 - - - -
28/04:30pm 15.7 SSE 8 14 1027.3 - 0.0 - - 10 - - - -
28/04:00pm 15.4 S 11 18 1027.0 - 0.0 - Partly cloudy 10 - - - -
28/03:30pm 16.1 S 11 17 1026.9 - 0.0 - Partly cloudy 10 - - - -
28/03:00pm 16.3 SSE 10 17 1026.8 - 0.0 - Mostly clear 10 - - - -
28/02:30pm 16.3 SSE 13 19 1026.8 - 0.0 - Partly cloudy 10 - - - -
28/02:00pm 16.8 S 13 19 1026.7 - 0.0 - Partly cloudy 10 - - - -
28/01:30pm 15.5 S 7 10 1026.7 - 0.0 - Partly cloudy 10 - - - -
28/01:00pm 16.0 S 14 17 1026.8 - 0.0 - Partly cloudy 10 - - - -
28/12:30pm 17.0 S 11 17 1027.0 - 0.0 - Partly cloudy 10 - - - -
28/12:00pm 15.6 S 10 13 1027.5 - 0.0 - Cloudy 10 - - - -
28/11:30am 16.5 S 13 19 1027.7 - 0.0 - Partly cloudy 10 - - - -
28/11:00am 16.1 S 15 19 1028.0 - 0.0 - Partly cloudy 10 - - - -
28/10:30am 16.5 S 12 16 1028.1 - 0.0 - - 10 - - - -
28/10:00am 16.6 S 11 16 1028.1 - 0.0 - - 10 - - - -
28/09:30am 15.8 SSE 8 12 1028.1 - 0.0 - - 10 - - - -
28/09:02am 14.7 S 7 11 1028.1 - 0.0 - Partly cloudy 10 - - - -
28/09:00am 14.5 S 7 9 1028.1 - 2.2 Recent precip. Cloudy 10 - - - -
28/08:48am 13.5 S 7 10 1028.0 - 2.2 - Partly cloudy 5 - - - -
28/08:30am 13.5 S 8 11 1028.1 - 1.6 - Partly cloudy 10 - - - -
28/08:00am 13.1 S 8 11 1027.9 - 1.6 - Cloudy 10 - - - -
28/07:30am 12.5 S 7 11 1027.7 - 1.6 - Partly cloudy 10 - - - -
28/07:00am 12.0 S 7 9 1027.2 - 1.6 - Partly cloudy 10 - - - -
28/06:48am 12.1 S 7 10 1027.1 - 1.6 - Partly cloudy 10 - - - -
28/06:35am 12.5 SSE 7 11 1027.3 - 1.4 - Partly cloudy 5 - - - -
28/06:30am 12.7 SSE 7 11 1027.4 - 1.4 - Partly cloudy 10 - - - -
28/06:00am 12.3 S 8 11 1026.7 - 1.4 - Mostly cloudy 10 - - - -
28/05:30am 12.1 S 7 10 1026.4 - 1.4 - Partly cloudy 10 - - - -
28/05:00am 12.2 S 8 12 1026.3 - 1.4 - - 10 - - - -
28/04:30am 12.2 S 9 14 1026.0 - 1.4 - - 10 - - - -
28/04:00am 12.0 S 6 9 1026.1 - 1.4 - Partly cloudy 10 - - - -
28/03:30am 12.5 S 10 13 1026.1 - 1.4 - Partly cloudy 10 - - - -
28/03:00am 12.5 SSW 6 8 1026.2 - 1.2 Recent precip. Cloudy 10 - - - -
28/02:40am 12.7 S 6 8 1026.3 - 1.0 - Partly cloudy 5 - - - -
28/02:30am 13.0 S 10 14 1026.2 - 0.4 - Partly cloudy 10 - - - -
28/02:00am 12.6 S 12 15 1026.3 - 0.4 - Partly cloudy 10 - - - -
28/01:30am 12.1 S 8 11 1026.4 - 0.4 - - 10 - - - -
28/01:00am 12.6 S 8 11 1026.7 - 0.4 - Partly cloudy 10 - - - -
28/12:30am 13.0 S 9 15 1026.8 - 0.4 - Partly cloudy 9 - - - -
28/12:00am 13.1 S 6 8 1026.8 - 0.4 - Cloudy 10 - - - -
 
Date/Time
EST
Temp

°C
Wind Pressure Rain
since 9am
mm
Weather Cloud Vis
km
Sea
Height
m
Swell
Dir
 
Speed
knots
Gust
knots
hPa Trend Height
m
Period
s
Dir
27/11:30pm 12.8 S 9 13 1026.9 - 0.4 - Partly cloudy 10 - - - -
27/11:00pm 12.6 S 5 6 1027.3 - 0.4 - Partly cloudy 10 - - - -
27/10:30pm 12.4 S 6 9 1027.1 - 0.4 - Partly cloudy 10 - - - -
27/10:00pm 11.9 S 4 6 1027.2 - 0.4 - Partly cloudy 10 - - - -
27/09:30pm 12.0 S 5 6 1027.2 - 0.4 - - 10 - - - -
27/09:00pm 11.8 S 5 8 1027.2 - 0.4 - - 10 - - - -
27/08:30pm 12.6 SSE 5 7 1027.3 - 0.4 - Partly cloudy 10 - - - -
27/08:00pm 13.1 SSE 4 7 1027.5 - 0.4 - Partly cloudy 10 - - - -
27/07:30pm 12.7 SSE 4 6 1027.4 - 0.2 - Partly cloudy 10 - - - -
27/07:00pm 13.1 S 5 7 1027.1 - 0.2 - Partly cloudy 10 - - - -
27/06:30pm 12.8 S 5 9 1027.0 - 0.2 - Partly cloudy 10 - - - -
27/06:00pm 13.6 S 7 11 1026.9 - 0.2 - Cloudy 10 - - - -
27/05:30pm 13.9 S 9 11 1026.7 - 0.2 - Partly cloudy 10 - - - -
27/05:00pm 14.2 S 10 13 1026.5 - 0.2 - Partly cloudy 10 - - - -
27/04:30pm 14.7 S 11 16 1026.3 - 0.2 - Partly cloudy 10 - - - -
27/04:00pm 15.3 S 13 19 1026.0 - 0.2 - Partly cloudy 10 - - - -
27/03:30pm 14.7 S 12 17 1025.8 - 0.2 - Partly cloudy 10 - - - -
27/03:00pm 16.5 S 14 18 1025.7 - 0.2 Recent precip. Partly cloudy 10 - - - -
27/02:30pm 15.3 SSE 11 16 1025.6 - 0.2 - Partly cloudy 10 - - - -
27/02:00pm 16.1 SSE 13 22 1025.6 - 0.0 - Partly cloudy 10 - - - -
27/01:30pm 17.0 S 14 20 1025.6 - 0.0 - Partly cloudy 10 - - - -
27/01:00pm 15.8 S 10 16 1025.9 - 0.0 - Partly cloudy 10 - - - -
27/12:30pm 17.6 SSE 11 21 1025.9 - 0.0 - Partly cloudy 10 - - - -
27/12:00pm 17.5 SSE 12 21 1026.3 - 0.0 - Mostly clear 10 - - - -
27/11:30am 16.6 SSE 13 19 1026.7 - 0.0 - Partly cloudy 10 - - - -
27/11:00am 17.0 SE 12 20 1026.9 - 0.0 - Partly cloudy 10 - - - -
27/10:30am 16.2 SSE 13 19 1027.2 - 0.0 - Partly cloudy 10 - - - -
27/10:00am 16.4 SSE 11 17 1027.2 - 0.0 - Partly cloudy 10 - - - -
27/09:30am 15.3 S 12 16 1027.2 - 0.0 - Partly cloudy 10 - - - -
27/09:00am 15.0 S 11 15 1027.1 - 47.4 - Cloudy 10 - - - -
27/08:30am 14.5 S 10 13 1026.9 - 47.4 - Partly cloudy 10 - - - -
27/08:00am 14.4 S 10 14 1026.8 - 47.4 - Partly cloudy 10 - - - -
27/07:30am 13.7 S 8 11 1026.6 - 47.4 - Partly cloudy 10 - - - -
27/07:00am 13.4 S 8 10 1026.3 - 47.4 - Cloudy 10 - - - -
27/06:30am 13.3 S 7 10 1026.2 - 47.4 - Partly cloudy 10 - - - -
27/06:00am 13.9 SSE 8 11 1026.0 - 47.4 - Cloudy 10 - - - -
27/05:30am 13.9 S 9 13 1025.9 - 47.4 - Partly cloudy 10 - - - -
27/05:00am 14.1 S 9 12 1025.8 - 47.4 - Partly cloudy 10 - - - -
27/04:30am 14.1 SSE 10 16 1025.5 - 47.4 - Partly cloudy 10 - - - -
27/04:00am 14.0 S 9 14 1025.4 - 47.4 - Partly cloudy 10 - - - -
27/03:43am 14.0 SSE 10 14 1025.4 - 47.4 - Partly cloudy 10 - - - -
27/03:30am 13.5 SSE 7 11 1025.5 - 47.4 - Partly cloudy 5 - - - -
27/03:26am 13.6 SSE 8 12 1025.5 - 47.4 - Partly cloudy 5 - - - -
27/03:00am 14.6 SSE 10 15 1025.4 - 47.0 - Cloudy 10 - - - -
27/02:30am 14.7 SSE 10 16 1025.6 - 47.0 - Partly cloudy 10 - - - -
27/02:00am 14.6 SSE 9 15 1025.7 - 47.0 - Partly cloudy 10 - - - -

Other Formats:

Comma delimited format used in spreadsheet applications
http://www.bom.gov.au/fwo/IDN60701/IDN60701.95748.axf

JavaScript Object Notation format (JSON) in row-major order
http://www.bom.gov.au/fwo/IDN60701/IDN60701.95748.json